Time;durP1;ratioP1;P1;durP2;ratioP2;P2;SDS_P1;SDS_P2;PMS_P1;PMS_P2;Temp;Humidity;BMP_temperature;BMP_pressure;BME280_temperature;BME280_humidity;BME280_pressure;Samples;Min_cycle;Max_cycle;Signal;HPM_P1;HPM_P2
2020/12/10 00:00:31;;;;;;;27.05;11.57;;;3.60;99.90;;;;;;4995835;28;20490;-69
2020/12/10 00:02:58;;;;;;;18.33;8.18;;;3.60;99.90;;;;;;4995051;28;20505;-69
2020/12/10 00:05:25;;;;;;;18.92;8.50;;;3.60;99.90;;;;;;4995619;28;20501;-68
2020/12/10 00:07:51;;;;;;;14.77;7.60;;;3.60;99.90;;;;;;4992908;28;20061;-68
2020/12/10 00:10:18;;;;;;;15.38;7.40;;;3.60;99.90;;;;;;5002067;28;20046;-69
2020/12/10 00:12:45;;;;;;;17.58;7.47;;;3.60;99.90;;;;;;4996318;28;20577;-69
2020/12/10 00:15:12;;;;;;;15.35;7.53;;;3.60;99.90;;;;;;4987425;28;20038;-69
2020/12/10 00:17:39;;;;;;;18.85;7.93;;;3.60;99.90;;;;;;4994347;28;20053;-69
2020/12/10 00:20:07;;;;;;;15.80;7.30;;;3.70;99.90;;;;;;4994308;28;20126;-69
2020/12/10 00:22:34;;;;;;;16.88;7.90;;;3.70;99.90;;;;;;4992748;28;20072;-69
2020/12/10 00:25:02;;;;;;;16.83;7.32;;;3.60;99.90;;;;;;4994370;28;20143;-69
2020/12/10 00:27:28;;;;;;;17.63;7.55;;;3.70;99.90;;;;;;4991968;28;20050;-69
2020/12/10 00:29:59;;;;;;;16.55;7.90;;;3.70;99.90;;;;;;4992976;28;20050;-69
2020/12/10 00:32:26;;;;;;;12.85;6.35;;;3.60;99.90;;;;;;4992945;28;20048;-69
2020/12/10 00:34:55;;;;;;;16.55;7.60;;;3.60;99.90;;;;;;4993914;28;20053;-69
2020/12/10 00:37:26;;;;;;;18.02;8.90;;;3.60;99.90;;;;;;4993107;28;20397;-69
2020/12/10 00:39:53;;;;;;;16.08;7.85;;;3.60;99.90;;;;;;4992929;28;20129;-69
2020/12/10 00:42:21;;;;;;;15.88;7.47;;;3.60;99.90;;;;;;4993182;28;20654;-69
2020/12/10 00:44:48;;;;;;;15.70;8.10;;;3.60;99.90;;;;;;4997549;28;20046;-69
2020/12/10 00:47:18;;;;;;;17.85;7.85;;;3.60;99.90;;;;;;4993169;28;20050;-69
2020/12/10 00:49:45;;;;;;;16.67;7.03;;;3.60;99.90;;;;;;4987247;28;20058;-69
2020/12/10 00:52:12;;;;;;;13.52;7.07;;;3.60;99.90;;;;;;4986100;28;20061;-69
2020/12/10 00:54:39;;;;;;;14.95;7.28;;;3.60;99.90;;;;;;4975837;28;20137;-68
2020/12/10 00:57:09;;;;;;;17.58;7.00;;;3.60;99.90;;;;;;4996341;28;20056;-70
2020/12/10 00:59:37;;;;;;;12.98;6.60;;;3.60;99.90;;;;;;4994977;28;20437;-70
2020/12/10 01:02:04;;;;;;;15.00;6.72;;;3.60;99.90;;;;;;4985657;28;20058;-70
2020/12/10 01:04:31;;;;;;;13.20;6.57;;;3.60;99.90;;;;;;4981324;28;20055;-70
2020/12/10 01:06:58;;;;;;;15.95;7.75;;;3.60;99.90;;;;;;5005148;28;20046;-70
2020/12/10 01:09:24;;;;;;;13.13;6.50;;;3.70;99.90;;;;;;4992619;28;20133;-70
2020/12/10 01:11:51;;;;;;;13.35;6.97;;;3.70;99.90;;;;;;5007662;28;20478;-70
2020/12/10 01:14:18;;;;;;;14.20;6.82;;;3.70;99.90;;;;;;5003985;28;20050;-70
2020/12/10 01:16:46;;;;;;;13.75;6.65;;;3.70;99.90;;;;;;4996502;28;20046;-70
2020/12/10 01:19:13;;;;;;;12.33;5.53;;;3.70;99.90;;;;;;5002796;28;20495;-70
2020/12/10 01:21:40;;;;;;;12.07;6.75;;;3.70;99.90;;;;;;5010799;28;20050;-70
2020/12/10 01:24:06;;;;;;;14.00;6.47;;;3.60;99.90;;;;;;5001373;28;20050;-70
2020/12/10 01:26:33;;;;;;;12.57;6.38;;;3.60;99.90;;;;;;5006969;28;20060;-70
2020/12/10 01:29:03;;;;;;;12.18;6.78;;;3.60;99.90;;;;;;4989543;28;20132;-70
2020/12/10 01:31:30;;;;;;;13.40;6.75;;;3.60;99.90;;;;;;4995340;28;20125;-70
2020/12/10 01:33:57;;;;;;;11.85;5.78;;;3.50;99.90;;;;;;4988438;28;20480;-70
2020/12/10 01:36:26;;;;;;;12.15;5.80;;;3.50;99.90;;;;;;4989535;28;20049;-70
2020/12/10 01:38:52;;;;;;;11.75;6.32;;;3.40;99.90;;;;;;4990732;28;20072;-70
2020/12/10 01:41:20;;;;;;;12.50;6.13;;;3.40;99.90;;;;;;4989182;28;20093;-70
2020/12/10 01:43:47;;;;;;;13.43;6.38;;;3.30;99.90;;;;;;4990937;28;20405;-70
2020/12/10 01:46:14;;;;;;;11.70;5.85;;;3.30;99.90;;;;;;4984742;28;20064;-70
2020/12/10 01:48:43;;;;;;;13.88;6.78;;;3.20;99.90;;;;;;4991749;28;20441;-70
2020/12/10 01:51:10;;;;;;;10.45;4.53;;;3.10;99.90;;;;;;4995915;28;20504;-70
2020/12/10 01:53:36;;;;;;;9.80;5.32;;;3.10;99.90;;;;;;4991602;28;20066;-69
2020/12/10 01:56:02;;;;;;;12.68;6.20;;;3.00;99.90;;;;;;4996116;28;20061;-69
2020/12/10 01:58:28;;;;;;;16.17;7.18;;;3.00;99.90;;;;;;4987094;28;20054;-69
2020/12/10 02:00:56;;;;;;;11.35;6.15;;;3.00;99.90;;;;;;4972479;28;20134;-69
2020/12/10 02:03:22;;;;;;;9.75;5.47;;;2.90;99.90;;;;;;4996997;28;20093;-69
2020/12/10 02:05:49;;;;;;;12.57;6.10;;;2.80;99.90;;;;;;4992535;28;20053;-69
2020/12/10 02:08:15;;;;;;;12.88;6.88;;;2.80;99.90;;;;;;4992627;28;20129;-68
2020/12/10 02:10:42;;;;;;;10.55;5.90;;;2.70;99.90;;;;;;4998669;28;20425;-69
2020/12/10 02:13:08;;;;;;;13.93;6.45;;;2.70;99.90;;;;;;4990335;28;20042;-69
2020/12/10 02:15:36;;;;;;;14.63;6.38;;;2.60;99.90;;;;;;4991489;28;20053;-69
2020/12/10 02:18:06;;;;;;;12.65;6.65;;;2.50;99.90;;;;;;4991659;28;20050;-69
2020/12/10 02:20:33;;;;;;;12.15;6.20;;;2.50;99.90;;;;;;4992690;28;20137;-69
2020/12/10 02:23:04;;;;;;;14.40;6.63;;;2.40;99.90;;;;;;4992861;28;20480;-69
2020/12/10 02:25:31;;;;;;;13.77;6.47;;;2.40;99.90;;;;;;5004990;28;20046;-68
2020/12/10 02:28:06;;;;;;;14.13;6.90;;;2.30;99.90;;;;;;4992756;28;20054;-68
2020/12/10 02:30:33;;;;;;;12.00;6.40;;;2.30;99.90;;;;;;4991976;28;20137;-69
2020/12/10 02:33:00;;;;;;;17.45;8.00;;;2.20;99.90;;;;;;4990323;28;20161;-69
2020/12/10 02:35:28;;;;;;;16.40;7.35;;;2.20;99.90;;;;;;4992346;28;20057;-68
2020/12/10 02:38:00;;;;;;;16.10;7.35;;;2.10;99.90;;;;;;4991485;28;20061;-68
2020/12/10 02:40:34;;;;;;;14.30;6.85;;;2.10;99.90;;;;;;4994710;28;20365;-68
2020/12/10 02:43:01;;;;;;;17.05;8.68;;;2.10;99.90;;;;;;4994965;28;20509;-68
2020/12/10 02:45:27;;;;;;;18.05;8.23;;;2.00;99.90;;;;;;5002137;28;20046;-69
2020/12/10 02:47:55;;;;;;;13.60;6.70;;;2.00;99.90;;;;;;4993790;28;20054;-69
2020/12/10 02:50:22;;;;;;;12.70;5.93;;;2.00;99.90;;;;;;4995689;28;20058;-68
2020/12/10 02:52:48;;;;;;;14.40;6.97;;;1.90;99.90;;;;;;4999957;28;20042;-68
2020/12/10 02:55:15;;;;;;;13.55;6.97;;;1.90;99.90;;;;;;4995844;28;20045;-69
2020/12/10 02:57:41;;;;;;;14.65;7.40;;;1.80;99.90;;;;;;4997162;28;20053;-68
2020/12/10 03:00:10;;;;;;;16.23;7.88;;;1.80;99.90;;;;;;5001528;28;20057;-68
2020/12/10 03:02:37;;;;;;;14.20;6.63;;;1.80;99.90;;;;;;4995653;28;20108;-68
2020/12/10 03:05:05;;;;;;;14.68;7.35;;;1.80;99.90;;;;;;4988724;28;20078;-68
2020/12/10 03:07:32;;;;;;;12.93;6.73;;;1.70;99.90;;;;;;4988656;28;20086;-68
2020/12/10 03:10:00;;;;;;;13.40;6.32;;;1.70;99.90;;;;;;4995436;28;20293;-68
2020/12/10 03:12:26;;;;;;;12.98;6.20;;;1.70;99.90;;;;;;4991370;28;20129;-68
2020/12/10 03:14:53;;;;;;;13.43;7.03;;;1.70;99.90;;;;;;4994984;28;20166;-69
2020/12/10 03:17:19;;;;;;;14.07;6.60;;;1.70;99.90;;;;;;4993339;28;20480;-68
2020/12/10 03:19:45;;;;;;;15.07;6.35;;;1.60;99.90;;;;;;4977640;28;20134;-68
2020/12/10 03:22:14;;;;;;;13.52;7.40;;;1.60;99.90;;;;;;4988503;28;20038;-68
2020/12/10 03:24:40;;;;;;;16.67;6.70;;;1.50;99.90;;;;;;4976511;28;20448;-68
2020/12/10 03:27:07;;;;;;;11.57;5.80;;;1.60;99.90;;;;;;4993557;28;20098;-68
2020/12/10 03:29:35;;;;;;;14.65;6.65;;;1.50;99.90;;;;;;4990419;28;20046;-68
2020/12/10 03:32:03;;;;;;;12.23;6.30;;;1.50;99.90;;;;;;4994505;28;20053;-68
2020/12/10 03:34:30;;;;;;;14.75;6.50;;;1.50;99.90;;;;;;4976768;28;20081;-68
2020/12/10 03:36:58;;;;;;;14.07;6.65;;;1.50;99.90;;;;;;4995047;28;20129;-68
2020/12/10 03:39:27;;;;;;;13.73;7.03;;;1.50;99.90;;;;;;4994128;28;20404;-68
2020/12/10 03:41:54;;;;;;;;;;;1.50;99.90;;;;;;4995623;28;20082;-68
2020/12/10 03:44:21;;;;;;;15.40;7.00;;;1.50;99.90;;;;;;4992288;28;19928;-68
2020/12/10 03:46:47;;;;;;;12.77;6.85;;;1.50;99.90;;;;;;4994283;28;20137;-68
2020/12/10 03:49:14;;;;;;;14.38;7.00;;;1.50;99.90;;;;;;4993188;28;20062;-69
2020/12/10 03:51:40;;;;;;;13.98;6.30;;;1.40;99.90;;;;;;4994348;28;20462;-68
2020/12/10 03:54:07;;;;;;;16.67;7.35;;;1.50;99.90;;;;;;4992967;28;20048;-68
2020/12/10 03:56:33;;;;;;;15.05;7.28;;;1.40;99.90;;;;;;4994780;28;20367;-68
2020/12/10 03:59:02;;;;;;;14.68;6.50;;;1.40;99.90;;;;;;4976629;28;20057;-68
2020/12/10 04:01:29;;;;;;;14.85;6.47;;;1.30;99.90;;;;;;4997952;28;20145;-69
2020/12/10 04:03:56;;;;;;;17.00;6.90;;;1.30;99.90;;;;;;4993463;28;20446;-68
2020/12/10 04:06:23;;;;;;;11.70;6.30;;;1.20;99.90;;;;;;4994661;28;20049;-69
2020/12/10 04:08:49;;;;;;;11.10;6.30;;;1.20;99.90;;;;;;4993062;28;20042;-70
2020/12/10 04:11:16;;;;;;;11.32;5.72;;;1.20;99.90;;;;;;4995172;28;20141;-68
2020/12/10 04:13:43;;;;;;;16.20;7.68;;;1.20;99.90;;;;;;4992581;28;20112;-68
2020/12/10 04:16:10;;;;;;;14.52;6.82;;;1.10;99.90;;;;;;4996936;28;20422;-68
2020/12/10 04:18:39;;;;;;;13.82;6.70;;;1.20;99.90;;;;;;4992784;28;20138;-68
2020/12/10 04:21:10;;;;;;;12.77;6.18;;;1.10;99.90;;;;;;4998328;28;20061;-68
2020/12/10 04:23:37;;;;;;;14.70;6.53;;;1.10;99.90;;;;;;4992647;28;20054;-68
2020/12/10 04:26:03;;;;;;;14.88;6.68;;;1.10;99.90;;;;;;4994780;28;20058;-68
2020/12/10 04:28:30;;;;;;;14.32;7.03;;;1.10;99.90;;;;;;4991774;28;20141;-68
2020/12/10 04:30:57;;;;;;;15.18;6.72;;;1.00;99.90;;;;;;4985896;28;20516;-68
2020/12/10 04:33:24;;;;;;;13.88;6.13;;;1.00;99.90;;;;;;4991695;28;20042;-68
2020/12/10 04:35:50;;;;;;;11.48;6.15;;;1.00;99.90;;;;;;4993665;28;20045;-69
2020/12/10 04:38:16;;;;;;;13.82;7.43;;;1.00;99.90;;;;;;4992008;28;20047;-69
2020/12/10 04:40:43;;;;;;;11.30;6.10;;;1.00;99.90;;;;;;4994011;28;20140;-67
2020/12/10 04:43:12;;;;;;;16.40;6.90;;;1.00;99.90;;;;;;4994104;28;20046;-67
2020/12/10 04:45:39;;;;;;;14.57;6.65;;;1.00;99.90;;;;;;4977567;28;20054;-67
2020/12/10 04:48:05;;;;;;;11.50;6.10;;;1.00;99.90;;;;;;4986537;28;20058;-67
2020/12/10 04:50:36;;;;;;;13.38;6.57;;;0.90;99.90;;;;;;4993237;28;20057;-67
2020/12/10 04:53:03;;;;;;;14.77;6.43;;;0.90;99.90;;;;;;4991463;28;20074;-67
2020/12/10 04:55:30;;;;;;;15.15;7.07;;;0.90;99.90;;;;;;4993753;28;20477;-67
2020/12/10 04:57:59;;;;;;;16.63;7.60;;;0.90;99.90;;;;;;4991218;28;20053;-67
2020/12/10 05:00:27;;;;;;;14.73;7.60;;;0.90;99.90;;;;;;4992229;28;20054;-67
2020/12/10 05:02:53;;;;;;;14.20;7.25;;;0.90;99.90;;;;;;4989788;28;20112;-67
2020/12/10 05:05:28;;;;;;;13.85;6.72;;;0.80;99.90;;;;;;4991530;28;20042;-67
2020/12/10 05:07:57;;;;;;;11.95;5.53;;;0.80;99.90;;;;;;4991524;28;20076;-67
2020/12/10 05:10:24;;;;;;;14.18;7.65;;;0.80;99.90;;;;;;4991740;28;20054;-67
2020/12/10 05:12:50;;;;;;;12.52;6.18;;;0.80;99.90;;;;;;4986948;28;20065;-67
2020/12/10 05:15:30;;;;;;;12.75;6.43;;;0.80;99.90;;;;;;4992117;28;20122;-67
2020/12/10 05:18:14;;;;;;;12.30;6.47;;;0.80;99.90;;;;;;4990971;28;20042;-67
2020/12/10 05:20:44;;;;;;;13.40;5.32;;;0.80;99.90;;;;;;4983071;28;20461;-67
2020/12/10 05:23:11;;;;;;;12.18;5.95;;;0.80;99.90;;;;;;4987542;28;20050;-67
2020/12/10 05:25:52;;;;;;;12.70;6.35;;;0.90;99.90;;;;;;4992646;28;20500;-67
2020/12/10 05:28:20;;;;;;;12.57;5.75;;;0.80;99.90;;;;;;4990928;28;20054;-67
2020/12/10 05:31:01;;;;;;;18.23;8.05;;;0.90;99.90;;;;;;4991261;28;20489;-67
2020/12/10 05:33:28;;;;;;;16.92;6.97;;;0.90;99.90;;;;;;4991083;28;20089;-67
2020/12/10 05:36:12;;;;;;;18.45;8.00;;;0.90;99.90;;;;;;4992290;28;20405;-67
2020/12/10 05:38:56;;;;;;;17.20;7.85;;;0.90;99.90;;;;;;4989059;28;20046;-67
2020/12/10 05:41:25;;;;;;;12.93;6.50;;;0.80;99.90;;;;;;4992813;28;20050;-67
2020/12/10 05:43:53;;;;;;;17.83;8.38;;;0.80;99.90;;;;;;4990125;28;20129;-67
2020/12/10 05:46:22;;;;;;;15.57;7.45;;;0.90;99.90;;;;;;4991646;28;20188;-67
2020/12/10 05:48:50;;;;;;;16.73;6.82;;;0.80;99.90;;;;;;4986122;28;20085;-67
2020/12/10 05:51:21;;;;;;;18.90;7.78;;;0.80;99.90;;;;;;4986957;28;20053;-67
2020/12/10 05:53:49;;;;;;;16.88;7.68;;;0.80;99.90;;;;;;4982539;28;20043;-67
2020/12/10 05:56:19;;;;;;;15.98;7.35;;;0.80;99.90;;;;;;4990809;28;20121;-67
2020/12/10 05:58:53;;;;;;;16.55;7.38;;;0.80;99.90;;;;;;4989944;28;20141;-67
2020/12/10 06:01:31;;;;;;;14.43;7.97;;;0.80;99.90;;;;;;4988846;28;20112;-67
2020/12/10 06:04:00;;;;;;;14.13;7.00;;;0.80;99.90;;;;;;4990824;28;20045;-67
2020/12/10 06:06:30;;;;;;;13.20;6.70;;;0.90;99.90;;;;;;4992259;28;20475;-67
2020/12/10 06:09:04;;;;;;;12.75;6.28;;;0.90;99.90;;;;;;4990725;28;20068;-67
2020/12/10 06:11:32;;;;;;;11.73;6.50;;;0.80;99.90;;;;;;4992272;28;20049;-67
2020/12/10 06:14:08;;;;;;;11.82;6.38;;;0.80;99.90;;;;;;4989978;28;20054;-67
2020/12/10 06:16:35;;;;;;;14.02;6.22;;;0.90;99.90;;;;;;4992445;28;20383;-67
2020/12/10 06:19:04;;;;;;;12.70;5.82;;;0.80;99.90;;;;;;4990527;28;20058;-67
2020/12/10 06:21:37;;;;;;;;;;;0.90;99.90;;;;;;4992181;28;20050;-67
2020/12/10 06:24:25;;;;;;;11.18;5.35;;;0.80;99.90;;;;;;4972711;28;20325;-67
2020/12/10 06:26:58;;;;;;;13.40;5.80;;;0.90;99.90;;;;;;4991691;28;20133;-67
2020/12/10 06:29:29;;;;;;;13.73;6.43;;;0.80;99.90;;;;;;4990667;28;20144;-67
2020/12/10 06:32:03;;;;;;;14.93;6.25;;;0.90;99.90;;;;;;4991600;28;20042;-67
2020/12/10 06:34:34;;;;;;;13.85;6.57;;;0.90;99.90;;;;;;4991731;28;20066;-67
2020/12/10 06:37:13;;;;;;;16.67;5.55;;;0.90;99.90;;;;;;4990774;28;20125;-67
2020/12/10 06:39:39;;;;;;;12.70;5.80;;;0.90;99.90;;;;;;4990327;28;20538;-67
2020/12/10 06:42:05;;;;;;;11.15;6.30;;;0.80;99.90;;;;;;4990656;28;20056;-67
2020/12/10 06:44:33;;;;;;;10.52;6.03;;;0.80;99.90;;;;;;4989022;28;20402;-67
2020/12/10 06:47:00;;;;;;;10.75;5.43;;;0.80;99.90;;;;;;4989814;28;20058;-67
2020/12/10 06:49:29;;;;;;;11.50;6.13;;;0.80;99.90;;;;;;4989802;28;20137;-67
2020/12/10 06:52:09;;;;;;;11.68;6.60;;;0.80;99.90;;;;;;4990345;28;20053;-67
2020/12/10 06:54:56;;;;;;;10.98;6.00;;;0.80;99.90;;;;;;4989640;28;20050;-67
2020/12/10 06:57:22;;;;;;;11.98;6.32;;;0.80;99.90;;;;;;4976815;28;20502;-67
2020/12/10 06:59:48;;;;;;;13.68;6.43;;;0.80;99.90;;;;;;4991428;28;20350;-67
2020/12/10 07:02:21;;;;;;;13.70;6.60;;;0.70;99.90;;;;;;4984351;28;20054;-67
2020/12/10 07:04:50;;;;;;;14.82;6.35;;;0.70;99.90;;;;;;4991766;28;20386;-67
2020/12/10 07:07:25;;;;;;;15.27;7.10;;;0.70;99.90;;;;;;4990669;28;20093;-67
2020/12/10 07:10:03;;;;;;;13.48;6.10;;;0.70;99.90;;;;;;4992023;28;20046;-67
2020/12/10 07:12:32;;;;;;;11.32;5.75;;;0.70;99.90;;;;;;4990114;28;20057;-68
2020/12/10 07:15:27;;;;;;;12.68;5.85;;;0.70;99.90;;;;;;4991284;28;20077;-67
2020/12/10 07:17:57;;;;;;;11.85;6.05;;;0.70;99.90;;;;;;4990068;28;20381;-68
2020/12/10 07:20:24;;;;;;;10.93;5.47;;;0.70;99.90;;;;;;4961482;28;20153;-68
2020/12/10 07:22:50;;;;;;;13.90;6.03;;;0.70;99.90;;;;;;4985909;28;20072;-68
2020/12/10 07:25:16;;;;;;;11.52;5.57;;;0.70;99.90;;;;;;4990943;28;20137;-69
2020/12/10 07:27:43;;;;;;;11.45;5.15;;;0.70;99.90;;;;;;4991504;28;20050;-68
2020/12/10 07:30:14;;;;;;;13.63;5.93;;;0.70;99.90;;;;;;4994851;28;20069;-69
2020/12/10 07:32:41;;;;;;;12.82;5.82;;;0.70;99.90;;;;;;4993773;28;20042;-69
2020/12/10 07:35:08;;;;;;;11.85;5.40;;;0.70;99.90;;;;;;4995180;28;20121;-69
2020/12/10 07:37:35;;;;;;;11.35;6.25;;;0.70;99.90;;;;;;4980081;28;20474;-68
2020/12/10 07:40:17;;;;;;;13.90;6.20;;;0.70;99.90;;;;;;4994337;28;20129;-68
2020/12/10 07:42:43;;;;;;;14.88;5.93;;;0.70;99.90;;;;;;4981212;28;20129;-68
2020/12/10 07:45:18;;;;;;;10.38;5.35;;;0.70;99.90;;;;;;4994849;28;20474;-68
2020/12/10 07:47:58;;;;;;;14.38;6.78;;;0.70;99.90;;;;;;4981061;28;20569;-69
2020/12/10 07:50:25;;;;;;;14.10;7.30;;;0.60;99.90;;;;;;4994474;28;20519;-68
2020/12/10 07:52:54;;;;;;;13.25;6.63;;;0.60;99.90;;;;;;4975682;28;20046;-69
2020/12/10 07:55:23;;;;;;;12.35;6.88;;;0.60;99.90;;;;;;4994823;28;20496;-69
2020/12/10 07:58:02;;;;;;;12.00;6.20;;;0.60;99.90;;;;;;4993201;28;20069;-69
2020/12/10 08:00:29;;;;;;;;;;;0.60;99.90;;;;;;4995357;28;20509;-68
2020/12/10 08:03:24;;;;;;;11.45;6.28;;;0.60;99.90;;;;;;4993043;28;20431;-68
2020/12/10 08:06:02;;;;;;;15.38;6.88;;;0.60;99.90;;;;;;4989154;28;20101;-68
2020/12/10 08:08:42;;;;;;;11.90;6.35;;;0.60;99.90;;;;;;4965938;28;20394;-68
2020/12/10 08:11:12;;;;;;;13.82;6.57;;;0.70;99.90;;;;;;4976127;28;20137;-68
2020/12/10 08:14:02;;;;;;;12.18;6.32;;;0.70;99.90;;;;;;4992035;28;20093;-68
2020/12/10 08:16:38;;;;;;;12.85;6.13;;;0.70;99.90;;;;;;4993139;28;20415;-68
2020/12/10 08:19:14;;;;;;;13.02;7.30;;;0.70;99.90;;;;;;4992721;28;20046;-69
2020/12/10 08:21:42;;;;;;;11.43;6.35;;;0.70;99.90;;;;;;4990828;28;20138;-68
2020/12/10 08:24:08;;;;;;;13.30;6.78;;;0.80;99.90;;;;;;4989913;28;20042;-68
2020/12/10 08:26:35;;;;;;;13.30;6.90;;;0.80;99.90;;;;;;4994547;28;20086;-68
2020/12/10 08:29:01;;;;;;;13.18;7.30;;;0.80;99.90;;;;;;4992047;28;20042;-68
2020/12/10 08:31:29;;;;;;;14.43;7.55;;;0.80;99.90;;;;;;4993958;28;20408;-68
2020/12/10 08:33:57;;;;;;;14.75;7.95;;;0.80;99.90;;;;;;4992327;28;20129;-68
2020/12/10 08:36:30;;;;;;;15.05;7.43;;;0.80;99.90;;;;;;4985573;28;20508;-68
2020/12/10 08:38:59;;;;;;;16.60;7.70;;;0.90;99.90;;;;;;4987726;28;20077;-70
2020/12/10 08:41:31;;;;;;;12.90;7.47;;;0.90;99.90;;;;;;4994336;28;20533;-68
2020/12/10 08:44:06;;;;;;;18.77;8.88;;;0.90;99.90;;;;;;4991641;28;20054;-68
2020/12/10 08:46:34;;;;;;;16.35;7.57;;;0.90;99.90;;;;;;4992635;28;20057;-68
2020/12/10 08:49:19;;;;;;;16.02;7.80;;;1.00;99.90;;;;;;4991606;28;20050;-68
2020/12/10 08:51:47;;;;;;;14.10;7.40;;;1.00;99.90;;;;;;4993913;28;20073;-68
2020/12/10 08:54:17;;;;;;;16.10;7.63;;;1.10;99.90;;;;;;4992002;28;20164;-68
2020/12/10 08:56:44;;;;;;;20.73;9.70;;;1.10;99.90;;;;;;4993920;28;20360;-68
2020/12/10 08:59:10;;;;;;;17.20;8.85;;;1.30;99.90;;;;;;4991931;28;20050;-68
2020/12/10 09:01:37;;;;;;;17.23;8.40;;;1.40;99.90;;;;;;4984148;28;20053;-69
2020/12/10 09:04:03;;;;;;;17.88;9.25;;;1.60;99.90;;;;;;4998857;28;20055;-69
2020/12/10 09:06:36;;;;;;;14.43;8.07;;;1.80;99.90;;;;;;4992394;28;20050;-68
2020/12/10 09:09:06;;;;;;;17.98;8.85;;;2.00;99.90;;;;;;4993920;28;20070;-68
2020/12/10 09:11:32;;;;;;;20.50;10.80;;;2.20;99.90;;;;;;5010664;28;20100;-68
2020/12/10 09:13:59;;;;;;;18.40;9.95;;;2.40;99.90;;;;;;5003918;28;20046;-68
2020/12/10 09:16:30;;;;;;;18.10;9.27;;;2.50;99.90;;;;;;5003750;28;20061;-68
2020/12/10 09:18:57;;;;;;;17.17;9.02;;;2.60;99.90;;;;;;5008734;28;20042;-68
2020/12/10 09:21:23;;;;;;;20.23;10.30;;;2.60;99.90;;;;;;5002651;28;20462;-68
2020/12/10 09:23:50;;;;;;;15.30;8.63;;;2.60;99.90;;;;;;5006681;28;20454;-68
2020/12/10 09:26:17;;;;;;;20.17;9.32;;;2.50;99.90;;;;;;5004912;28;20132;-68
2020/12/10 09:28:43;;;;;;;19.05;9.38;;;2.40;99.90;;;;;;5009567;28;20091;-68
2020/12/10 09:31:10;;;;;;;20.67;10.63;;;2.30;99.90;;;;;;5012449;28;20517;-68
2020/12/10 09:33:36;;;;;;;18.80;8.52;;;2.20;99.90;;;;;;5010418;28;20406;-68
2020/12/10 09:36:03;;;;;;;22.40;10.65;;;2.10;99.90;;;;;;4998783;28;20048;-68
2020/12/10 09:38:29;;;;;;;21.77;10.55;;;2.10;99.90;;;;;;5010525;28;20173;-68
2020/12/10 09:40:55;;;;;;;20.55;10.27;;;2.00;99.90;;;;;;5011749;28;20050;-68
2020/12/10 09:43:22;;;;;;;20.20;10.20;;;2.00;99.90;;;;;;5009711;28;20486;-68
2020/12/10 09:45:56;;;;;;;19.88;10.25;;;1.90;99.90;;;;;;5001571;28;20048;-68
2020/12/10 09:48:23;;;;;;;22.90;10.65;;;2.00;99.90;;;;;;5009268;28;20132;-68
2020/12/10 09:50:50;;;;;;;23.45;11.07;;;2.00;99.90;;;;;;5011428;28;20042;-68
2020/12/10 09:53:21;;;;;;;22.80;11.27;;;2.10;99.90;;;;;;5009329;28;20085;-68
2020/12/10 09:56:10;;;;;;;19.58;10.02;;;2.30;99.90;;;;;;5001632;28;20128;-68
2020/12/10 09:58:33;;;;;;;25.48;11.52;;;2.40;99.90;;;;;;5008735;28;20045;-68
2020/12/10 10:00:59;;;;;;;21.23;10.80;;;2.60;99.90;;;;;;5007849;28;20072;-68
2020/12/10 10:03:25;;;;;;;20.25;10.30;;;2.60;99.90;;;;;;4989324;28;20046;-68
2020/12/10 10:05:55;;;;;;;23.08;11.27;;;2.50;99.90;;;;;;4975830;28;20132;-68
2020/12/10 10:08:23;;;;;;;20.88;10.10;;;2.40;99.90;;;;;;4990799;28;20056;-68
2020/12/10 10:10:50;;;;;;;;;;;2.40;99.90;;;;;;4985618;28;20080;-68
2020/12/10 10:13:17;;;;;;;19.35;9.93;;;2.40;99.90;;;;;;4990157;28;20016;-68
2020/12/10 10:15:45;;;;;;;20.58;10.15;;;2.30;99.90;;;;;;4991754;28;20046;-68
2020/12/10 10:18:11;;;;;;;24.27;12.18;;;2.30;99.90;;;;;;4990200;28;20137;-67
2020/12/10 10:20:38;;;;;;;19.73;10.43;;;2.30;99.90;;;;;;4992430;28;20125;-68
2020/12/10 10:23:04;;;;;;;21.48;10.20;;;2.30;99.90;;;;;;4990973;28;20050;-68
2020/12/10 10:25:30;;;;;;;21.25;10.27;;;2.30;99.90;;;;;;4992663;28;20058;-68
2020/12/10 10:28:01;;;;;;;19.48;9.68;;;2.40;99.90;;;;;;4990599;28;20537;-68
2020/12/10 10:30:28;;;;;;;22.88;9.90;;;2.40;99.90;;;;;;4991903;28;20054;-68
2020/12/10 10:32:54;;;;;;;19.02;10.00;;;2.40;99.90;;;;;;4990543;28;20581;-68
2020/12/10 10:35:23;;;;;;;20.20;9.18;;;2.40;99.90;;;;;;4963602;28;20379;-68
2020/12/10 10:37:50;;;;;;;17.35;8.63;;;2.40;99.90;;;;;;4980094;28;20113;-68
2020/12/10 10:40:18;;;;;;;14.27;8.55;;;2.40;99.90;;;;;;4991907;28;20496;-68
2020/12/10 10:42:45;;;;;;;18.43;9.50;;;2.50;99.90;;;;;;4990639;28;20485;-68
2020/12/10 10:45:11;;;;;;;18.08;8.95;;;2.50;99.90;;;;;;4981982;28;20047;-68
2020/12/10 10:47:38;;;;;;;21.27;9.63;;;2.50;99.90;;;;;;4987976;28;20053;-68
2020/12/10 10:50:04;;;;;;;20.17;9.80;;;2.60;99.90;;;;;;4987293;28;20164;-68
2020/12/10 10:52:31;;;;;;;21.35;11.07;;;2.60;99.90;;;;;;4997536;28;20600;-68
2020/12/10 10:54:57;;;;;;;20.40;10.07;;;2.60;99.90;;;;;;5003275;28;20053;-68
2020/12/10 10:57:23;;;;;;;23.50;10.82;;;2.70;99.90;;;;;;4990058;28;20054;-68
2020/12/10 10:59:50;;;;;;;21.08;10.52;;;2.70;99.90;;;;;;5003481;28;20124;-68
2020/12/10 11:02:16;;;;;;;20.50;9.80;;;2.70;99.90;;;;;;5000444;28;20192;-68
2020/12/10 11:04:43;;;;;;;21.33;10.30;;;2.70;99.90;;;;;;4997350;28;20090;-68
2020/12/10 11:07:09;;;;;;;18.20;10.15;;;2.70;99.90;;;;;;4993795;28;20070;-68
2020/12/10 11:09:35;;;;;;;20.50;10.35;;;2.70;99.90;;;;;;4999414;28;20060;-68
2020/12/10 11:12:02;;;;;;;18.88;9.90;;;2.80;99.90;;;;;;4992641;28;20130;-68
2020/12/10 11:14:28;;;;;;;20.73;9.85;;;2.80;99.90;;;;;;4995662;28;20060;-68
2020/12/10 11:16:57;;;;;;;23.52;11.00;;;2.80;99.90;;;;;;4994324;28;20062;-68
2020/12/10 11:19:24;;;;;;;20.17;10.43;;;2.80;99.90;;;;;;4993814;28;20047;-68
2020/12/10 11:21:51;;;;;;;21.58;11.40;;;2.90;99.90;;;;;;4981987;28;20482;-68
2020/12/10 11:24:17;;;;;;;21.58;10.07;;;2.90;99.90;;;;;;4993619;28;20486;-68
2020/12/10 11:26:44;;;;;;;22.92;10.80;;;2.90;99.90;;;;;;4995596;28;20054;-68
2020/12/10 11:29:10;;;;;;;21.08;10.65;;;2.90;99.90;;;;;;4992112;28;20137;-68
2020/12/10 11:31:36;;;;;;;21.23;10.43;;;2.90;99.90;;;;;;4995983;28;20054;-69
2020/12/10 11:34:02;;;;;;;22.17;10.13;;;3.00;99.90;;;;;;5000658;28;20427;-68
2020/12/10 11:36:29;;;;;;;22.27;11.48;;;3.00;99.90;;;;;;4994233;28;20050;-69
2020/12/10 11:38:55;;;;;;;20.00;10.45;;;3.00;99.90;;;;;;4993496;28;20113;-69
2020/12/10 11:41:22;;;;;;;18.48;9.20;;;3.10;99.90;;;;;;4994801;28;20451;-69
2020/12/10 11:43:49;;;;;;;20.58;9.43;;;3.10;99.90;;;;;;4983681;28;20113;-68
2020/12/10 11:46:15;;;;;;;21.33;10.07;;;3.20;99.90;;;;;;4996468;28;20478;-69
2020/12/10 11:48:42;;;;;;;19.67;9.48;;;3.20;99.90;;;;;;4992641;28;20474;-68
2020/12/10 11:51:09;;;;;;;22.88;9.85;;;3.30;99.90;;;;;;5002254;28;20119;-69
2020/12/10 11:53:35;;;;;;;19.27;9.82;;;3.30;99.90;;;;;;4998011;28;20050;-68
2020/12/10 11:56:03;;;;;;;19.95;10.43;;;3.30;99.90;;;;;;5001178;28;20043;-69
2020/12/10 11:58:31;;;;;;;21.30;10.57;;;3.40;99.90;;;;;;4992614;28;20108;-69
2020/12/10 12:00:58;;;;;;;22.58;11.45;;;3.40;99.90;;;;;;4980276;28;20050;-69
2020/12/10 12:03:25;;;;;;;28.83;12.75;;;3.30;99.90;;;;;;4990743;28;20133;-69
2020/12/10 12:05:52;;;;;;;23.30;12.15;;;3.40;99.90;;;;;;4994548;28;20061;-68
2020/12/10 12:08:24;;;;;;;23.27;11.77;;;3.30;99.90;;;;;;4993094;28;20062;-69
2020/12/10 12:10:52;;;;;;;23.65;12.05;;;3.30;99.90;;;;;;4991952;28;20046;-69
2020/12/10 12:13:18;;;;;;;21.77;10.93;;;3.40;99.90;;;;;;4990210;28;20054;-69
2020/12/10 12:15:45;;;;;;;22.55;10.93;;;3.40;99.90;;;;;;4993216;28;20133;-69
2020/12/10 12:18:12;;;;;;;21.67;11.18;;;3.50;99.90;;;;;;4991781;28;20039;-69
2020/12/10 12:20:38;;;;;;;21.50;10.95;;;3.70;99.90;;;;;;4993398;28;20042;-69
2020/12/10 12:23:07;;;;;;;23.13;11.30;;;4.00;99.90;;;;;;4992725;28;20528;-68
2020/12/10 12:25:35;;;;;;;20.10;10.98;;;4.30;99.90;;;;;;4993982;28;20056;-69
2020/12/10 12:28:01;;;;;;;23.08;11.05;;;4.70;99.90;;;;;;4989540;28;20050;-69
2020/12/10 12:30:28;;;;;;;20.88;10.82;;;5.10;99.90;;;;;;4991101;28;20056;-69
2020/12/10 12:32:55;;;;;;;18.10;10.07;;;5.40;99.90;;;;;;4990579;28;20051;-68
2020/12/10 12:35:22;;;;;;;21.67;12.00;;;5.70;99.90;;;;;;4993591;28;20149;-69
2020/12/10 12:37:48;;;;;;;20.05;10.98;;;5.80;99.90;;;;;;4991374;28;20120;-69
2020/12/10 12:40:14;;;;;;;19.35;11.00;;;5.90;99.90;;;;;;4992292;28;20066;-69
2020/12/10 12:42:42;;;;;;;21.25;11.77;;;5.90;99.90;;;;;;4974931;28;20054;-69
2020/12/10 12:45:08;;;;;;;24.67;12.00;;;6.10;99.90;;;;;;4986083;28;20189;-69
2020/12/10 12:47:34;;;;;;;21.30;11.25;;;6.30;99.90;;;;;;4987142;28;20062;-69
2020/12/10 12:50:02;;;;;;;21.67;11.38;;;6.50;99.90;;;;;;4988954;28;20054;-70
2020/12/10 12:52:37;;;;;;;21.10;12.00;;;6.70;99.90;;;;;;4987668;28;20050;-70